createdAt,value
2022-10-18T00:10:07.987Z,17.1
2022-10-18T00:25:50.314Z,15.6
2022-10-18T00:41:33.283Z,15.2
2022-10-18T00:57:16.027Z,13.7
2022-10-18T01:12:58.111Z,15
2022-10-18T01:28:40.272Z,15.3
2022-10-18T01:44:22.646Z,13.1
2022-10-18T02:00:05.596Z,14.4
2022-10-18T02:15:47.615Z,12.6
2022-10-18T02:31:29.800Z,15.3
2022-10-18T02:47:12.145Z,13
2022-10-18T03:02:54.147Z,14.1
2022-10-18T03:18:36.981Z,16.6
2022-10-18T03:34:19.347Z,17.29
2022-10-18T03:50:01.807Z,18.29
2022-10-18T04:05:44.769Z,20.29
2022-10-18T04:21:27.142Z,19.29
2022-10-18T04:37:09.859Z,19
2022-10-18T04:52:52.455Z,22.8
2022-10-18T05:08:34.648Z,25.9
2022-10-18T05:24:17.232Z,21.5
2022-10-18T05:39:59.288Z,24.8
2022-10-18T05:55:41.696Z,21.2
2022-10-18T06:11:24.452Z,21.8
2022-10-18T06:27:07.080Z,20
2022-10-18T06:42:49.513Z,19.7
2022-10-18T06:58:32.217Z,25.9
2022-10-18T07:14:14.642Z,23.1
2022-10-18T07:29:56.793Z,27.5
2022-10-18T07:45:38.897Z,34.7
2022-10-18T08:01:21.530Z,28.1
2022-10-18T08:17:04.146Z,16.29
2022-10-18T08:32:46.644Z,14.8
2022-10-18T08:48:29.398Z,10.7
2022-10-18T09:04:11.898Z,11.3
2022-10-18T09:19:54.751Z,10.1
2022-10-18T09:35:37.791Z,10.1
2022-10-18T09:51:20.692Z,9
2022-10-18T10:07:03.506Z,8.5
2022-10-18T10:22:45.671Z,7.6
2022-10-18T10:38:28.111Z,8
2022-10-18T10:54:10.519Z,9.2
2022-10-18T11:09:52.695Z,12
2022-10-18T11:25:35.574Z,16
2022-10-18T11:41:18.521Z,51.8
2022-10-18T11:57:01.147Z,16.7
2022-10-18T12:12:43.639Z,10.8
2022-10-18T12:28:26.348Z,9.89
2022-10-18T12:44:08.904Z,10
2022-10-18T12:44:56.228Z,10.7
2022-10-18T13:00:38.246Z,9.3
2022-10-18T13:16:20.491Z,8.39
2022-10-18T13:32:02.781Z,9.1
2022-10-18T13:47:45.786Z,9.1
2022-10-18T14:03:28.038Z,8.8
2022-10-18T14:19:10.244Z,8.7
2022-10-18T14:34:52.924Z,6.5
2022-10-18T14:50:35.601Z,7.9
2022-10-18T15:06:18.147Z,9
2022-10-18T15:22:00.538Z,10.7
2022-10-18T15:37:42.985Z,11.8
2022-10-18T15:53:25.796Z,14.6
2022-10-18T16:09:08.432Z,15.8
2022-10-18T16:24:50.749Z,18.5
2022-10-18T16:40:32.950Z,22.8
2022-10-18T16:56:15.116Z,21.2
2022-10-18T17:11:57.467Z,20
2022-10-18T17:27:39.671Z,23.6
2022-10-18T17:43:22.414Z,20.4
2022-10-18T17:59:05.250Z,21.6
2022-10-18T18:14:48.219Z,28.2
2022-10-18T18:30:30.916Z,22
2022-10-18T18:46:13.689Z,28.8
2022-10-18T19:01:55.791Z,32.09
2022-10-18T19:17:38.042Z,30.9
2022-10-18T19:33:20.685Z,27.8
2022-10-18T19:49:03.723Z,27
2022-10-18T20:04:45.914Z,22.4
2022-10-18T20:20:28.524Z,23.6
2022-10-18T20:36:11.037Z,20
2022-10-18T20:51:54.112Z,18.1
2022-10-18T21:07:36.266Z,17.7
2022-10-18T21:23:19.223Z,13.5
2022-10-18T21:39:02.082Z,11.3
2022-10-18T21:54:44.239Z,9.6
2022-10-18T22:10:27.054Z,8.7
2022-10-18T22:26:09.571Z,8.3
2022-10-18T22:41:52.318Z,8
2022-10-18T22:57:34.864Z,8.7
2022-10-18T23:13:17.365Z,7.2
2022-10-18T23:29:00.426Z,6.4
2022-10-18T23:44:42.718Z,6.7
